createdAt,value
2017-08-26T00:01:48.213Z,21.70
2017-08-26T00:04:14.560Z,21.70
2017-08-26T00:06:40.868Z,21.70
2017-08-26T00:09:07.167Z,21.60
2017-08-26T00:11:33.428Z,21.60
2017-08-26T00:13:59.727Z,21.60
2017-08-26T00:16:25.998Z,21.40
2017-08-26T00:18:52.274Z,21.40
2017-08-26T00:21:18.811Z,21.50
2017-08-26T00:23:45.087Z,21.50
2017-08-26T00:26:11.370Z,21.50
2017-08-26T00:28:37.662Z,21.40
2017-08-26T00:31:03.959Z,21.30
2017-08-26T00:33:30.269Z,21.40
2017-08-26T00:35:56.586Z,21.40
2017-08-26T00:38:22.902Z,21.40
2017-08-26T00:40:49.170Z,21.40
2017-08-26T00:43:15.466Z,21.30
2017-08-26T00:45:41.750Z,21.20
2017-08-26T00:48:08.060Z,21.30
2017-08-26T00:50:34.406Z,21.30
2017-08-26T00:53:00.710Z,21.20
2017-08-26T00:55:27.018Z,21.20
2017-08-26T00:57:53.318Z,21.20
2017-08-26T01:00:19.672Z,21.10
2017-08-26T01:02:45.988Z,21.00
2017-08-26T01:05:12.315Z,21.00
2017-08-26T01:07:39.558Z,21.10
2017-08-26T01:10:05.866Z,21.10
2017-08-26T01:12:32.586Z,21.10
2017-08-26T01:14:58.868Z,21.00
2017-08-26T01:17:25.132Z,21.00
2017-08-26T01:19:51.417Z,21.00
2017-08-26T01:22:17.748Z,20.90
2017-08-26T01:24:44.066Z,21.00
2017-08-26T01:27:10.329Z,20.80
2017-08-26T01:29:36.608Z,20.70
2017-08-26T01:32:02.871Z,20.70
2017-08-26T01:34:29.458Z,20.80
2017-08-26T01:36:55.753Z,20.70
2017-08-26T01:39:22.025Z,20.80
2017-08-26T01:41:48.322Z,20.80
2017-08-26T01:44:14.622Z,20.70
2017-08-26T01:46:40.902Z,20.60
2017-08-26T01:49:07.800Z,20.60
2017-08-26T01:51:34.120Z,20.60
2017-08-26T01:54:00.406Z,20.50
2017-08-26T01:56:27.696Z,20.50
2017-08-26T01:58:53.977Z,20.40
2017-08-26T02:01:20.244Z,20.40
2017-08-26T02:03:46.546Z,20.40
2017-08-26T02:06:12.826Z,20.50
2017-08-26T02:08:39.120Z,20.50
2017-08-26T02:11:05.399Z,20.50
2017-08-26T02:13:31.688Z,20.60
2017-08-26T02:15:57.957Z,20.60
2017-08-26T02:18:24.267Z,20.50
2017-08-26T02:20:50.554Z,20.40
2017-08-26T02:23:16.858Z,20.40
2017-08-26T02:25:43.162Z,20.50
2017-08-26T02:28:09.437Z,20.40
2017-08-26T02:30:35.737Z,20.40
2017-08-26T02:33:02.003Z,20.30
2017-08-26T02:35:28.297Z,20.30
2017-08-26T02:37:54.568Z,20.20
2017-08-26T02:40:20.860Z,20.20
2017-08-26T02:42:47.142Z,20.30
2017-08-26T02:45:13.419Z,20.30
2017-08-26T02:47:40.002Z,20.30
2017-08-26T02:50:06.280Z,20.30
2017-08-26T02:52:32.541Z,20.20
2017-08-26T02:54:58.819Z,20.20
2017-08-26T02:57:25.086Z,20.30
2017-08-26T02:59:51.378Z,20.30
2017-08-26T03:02:17.650Z,20.30
2017-08-26T03:04:43.958Z,20.30
2017-08-26T03:07:10.257Z,20.30
2017-08-26T03:09:36.517Z,20.20
2017-08-26T03:12:02.826Z,20.10
2017-08-26T03:14:29.077Z,20.00
2017-08-26T03:16:55.718Z,19.90
2017-08-26T03:19:22.128Z,19.90
2017-08-26T03:21:48.412Z,19.90
2017-08-26T03:24:14.727Z,19.80
2017-08-26T03:26:40.964Z,19.70
2017-08-26T03:29:07.252Z,19.70
2017-08-26T03:31:33.515Z,19.70
2017-08-26T03:34:00.177Z,19.60
2017-08-26T03:36:26.443Z,19.60
2017-08-26T03:38:52.711Z,19.70
2017-08-26T03:41:19.020Z,19.70
2017-08-26T03:43:45.326Z,19.80
2017-08-26T03:46:11.611Z,19.70
2017-08-26T03:48:39.989Z,19.70
2017-08-26T03:51:06.288Z,19.60
2017-08-26T03:53:32.568Z,19.70
2017-08-26T03:55:58.855Z,19.70
2017-08-26T03:58:25.132Z,19.60
2017-08-26T04:00:51.397Z,19.60
2017-08-26T04:03:17.710Z,19.80
2017-08-26T04:05:43.983Z,19.70
2017-08-26T04:08:10.261Z,19.70
2017-08-26T04:10:36.509Z,19.60
2017-08-26T04:13:02.802Z,19.60
2017-08-26T04:15:29.070Z,19.60
2017-08-26T04:17:55.340Z,19.70
2017-08-26T04:20:21.637Z,19.80
2017-08-26T04:22:47.889Z,19.80
2017-08-26T04:25:14.173Z,19.80
2017-08-26T04:27:40.422Z,19.90
2017-08-26T04:30:06.722Z,19.80
2017-08-26T04:32:32.978Z,19.90
2017-08-26T04:34:59.269Z,19.80
2017-08-26T04:37:25.537Z,19.80
2017-08-26T04:39:51.793Z,19.80
2017-08-26T04:42:18.823Z,19.80
2017-08-26T04:44:45.093Z,19.90
2017-08-26T04:47:11.376Z,19.80
2017-08-26T04:49:37.650Z,19.80
2017-08-26T04:52:03.939Z,19.90
2017-08-26T04:54:30.231Z,19.80
2017-08-26T04:56:56.534Z,19.80
2017-08-26T04:59:22.800Z,19.80
2017-08-26T05:01:49.061Z,19.80
2017-08-26T05:04:15.330Z,19.70
2017-08-26T05:06:42.265Z,19.70
2017-08-26T05:09:08.542Z,19.60
2017-08-26T05:11:34.822Z,19.70
2017-08-26T05:14:01.109Z,19.60
2017-08-26T05:16:27.378Z,19.50
2017-08-26T05:18:53.658Z,19.60
2017-08-26T05:21:19.921Z,19.80
2017-08-26T05:23:46.202Z,20.00
2017-08-26T05:26:12.504Z,20.00
2017-08-26T05:28:38.757Z,19.90
2017-08-26T05:31:05.062Z,19.90
2017-08-26T05:33:31.354Z,19.80
2017-08-26T05:35:57.645Z,19.90
2017-08-26T05:38:23.915Z,19.90
2017-08-26T05:40:50.233Z,20.10
2017-08-26T05:43:16.535Z,20.20
2017-08-26T05:45:42.848Z,20.00
2017-08-26T05:48:09.160Z,20.10
2017-08-26T05:50:35.434Z,20.00
2017-08-26T05:53:01.743Z,20.10
2017-08-26T05:55:28.043Z,20.20
2017-08-26T05:57:54.340Z,20.40
2017-08-26T06:00:20.676Z,20.60
2017-08-26T06:02:46.940Z,20.60
2017-08-26T06:05:13.890Z,20.80
2017-08-26T06:07:40.152Z,20.90
2017-08-26T06:10:06.507Z,20.90
2017-08-26T06:12:32.781Z,21.10
2017-08-26T06:14:59.449Z,21.20
2017-08-26T06:17:25.724Z,21.10
2017-08-26T06:19:52.917Z,21.10
2017-08-26T06:22:19.201Z,21.10
2017-08-26T06:24:45.480Z,21.20
2017-08-26T06:27:11.774Z,21.20
2017-08-26T06:29:38.049Z,21.30
2017-08-26T06:32:04.357Z,21.50
2017-08-26T06:34:30.625Z,21.80
2017-08-26T06:36:56.908Z,21.80
2017-08-26T06:39:23.186Z,22.00
2017-08-26T06:41:49.494Z,22.10
2017-08-26T06:44:15.784Z,22.40
2017-08-26T06:46:42.048Z,22.50
2017-08-26T06:49:08.343Z,22.70
2017-08-26T06:51:34.647Z,22.90
2017-08-26T06:54:00.946Z,22.90
2017-08-26T06:56:27.222Z,22.80
2017-08-26T06:58:53.502Z,22.70
2017-08-26T07:01:19.829Z,22.40
2017-08-26T07:03:46.085Z,22.30
2017-08-26T07:06:12.377Z,22.50
2017-08-26T07:08:38.650Z,22.60
2017-08-26T07:11:04.954Z,22.50
2017-08-26T07:13:31.201Z,22.70
2017-08-26T07:15:57.511Z,22.60
2017-08-26T07:18:23.781Z,22.70
2017-08-26T07:20:50.065Z,22.70
2017-08-26T07:23:16.404Z,22.80
2017-08-26T07:25:42.670Z,22.70
2017-08-26T07:28:08.958Z,22.80
2017-08-26T07:30:35.232Z,22.80
2017-08-26T07:33:01.504Z,23.00
2017-08-26T07:35:27.776Z,23.00
2017-08-26T07:37:54.063Z,23.10
2017-08-26T07:40:20.375Z,23.10
2017-08-26T07:42:46.627Z,23.10
2017-08-26T07:45:12.919Z,23.30
2017-08-26T07:47:39.951Z,23.40
2017-08-26T07:50:06.601Z,23.40
2017-08-26T07:52:32.850Z,23.20
2017-08-26T07:54:59.162Z,23.30
2017-08-26T07:57:25.479Z,23.50
2017-08-26T07:59:51.739Z,23.60
2017-08-26T08:02:18.618Z,23.50
2017-08-26T08:04:44.902Z,23.40
2017-08-26T08:07:11.764Z,23.50
2017-08-26T08:09:38.066Z,23.60
2017-08-26T08:12:04.322Z,23.80
2017-08-26T08:14:30.659Z,24.00
2017-08-26T08:16:56.930Z,24.10
2017-08-26T08:19:23.235Z,24.20
2017-08-26T08:21:50.099Z,24.20
2017-08-26T08:24:16.354Z,24.30
2017-08-26T08:26:42.666Z,24.50
2017-08-26T08:29:08.946Z,24.50
2017-08-26T08:31:35.215Z,24.60
2017-08-26T08:34:01.462Z,24.60
2017-08-26T08:36:27.753Z,24.40
2017-08-26T08:38:54.026Z,24.30
2017-08-26T08:41:20.325Z,24.70
2017-08-26T08:43:46.601Z,25.00
2017-08-26T08:46:12.886Z,25.20
2017-08-26T08:48:39.166Z,25.10
2017-08-26T08:51:05.438Z,25.10
2017-08-26T08:53:31.722Z,25.20
2017-08-26T08:55:58.135Z,25.30
2017-08-26T08:58:24.413Z,25.40
2017-08-26T09:00:50.696Z,25.60
2017-08-26T09:03:16.946Z,25.70
2017-08-26T09:05:43.224Z,25.70
2017-08-26T09:08:09.511Z,25.90
2017-08-26T09:10:35.775Z,26.10
2017-08-26T09:13:02.062Z,26.00
2017-08-26T09:15:28.324Z,25.90
2017-08-26T09:17:54.630Z,25.90
2017-08-26T09:20:20.899Z,25.90
2017-08-26T09:22:47.213Z,26.00
2017-08-26T09:25:13.477Z,26.20
2017-08-26T09:27:39.753Z,26.30
2017-08-26T09:30:06.057Z,26.40
2017-08-26T09:32:32.314Z,26.60
2017-08-26T09:34:58.614Z,26.80
2017-08-26T09:37:24.886Z,26.80
2017-08-26T09:39:51.178Z,26.90
2017-08-26T09:42:17.468Z,26.90
2017-08-26T09:44:43.746Z,27.00
2017-08-26T09:47:10.039Z,27.20
2017-08-26T09:49:36.374Z,27.30
2017-08-26T09:52:02.673Z,27.40
2017-08-26T09:54:28.955Z,27.30
2017-08-26T09:56:55.245Z,27.40
2017-08-26T09:59:21.517Z,27.60
2017-08-26T10:01:47.823Z,27.90
2017-08-26T10:04:14.133Z,28.00
2017-08-26T10:06:40.417Z,28.20
2017-08-26T10:09:06.712Z,28.20
2017-08-26T10:11:32.978Z,28.40
2017-08-26T10:13:59.268Z,28.30
2017-08-26T10:16:25.545Z,28.50
2017-08-26T10:18:51.882Z,28.60
2017-08-26T10:21:18.211Z,28.70
2017-08-26T10:23:44.483Z,29.00
2017-08-26T10:26:10.815Z,29.20
2017-08-26T10:28:37.112Z,29.20
2017-08-26T10:31:03.707Z,29.50
2017-08-26T10:33:29.983Z,29.80
2017-08-26T10:35:56.295Z,30.00
2017-08-26T10:38:22.619Z,29.90
2017-08-26T10:40:48.926Z,30.20
2017-08-26T10:43:15.258Z,30.40
2017-08-26T10:45:41.586Z,30.80
2017-08-26T10:48:07.893Z,31.20
2017-08-26T10:50:34.206Z,31.80
2017-08-26T10:53:00.481Z,32.40
2017-08-26T10:55:26.784Z,32.80
2017-08-26T10:57:53.916Z,33.20
2017-08-26T11:00:20.204Z,33.50
2017-08-26T11:02:46.470Z,33.90
2017-08-26T11:05:12.802Z,34.30
2017-08-26T11:07:39.080Z,34.00
2017-08-26T11:10:05.332Z,34.10
2017-08-26T11:12:31.664Z,34.50
2017-08-26T11:14:57.913Z,34.50
2017-08-26T11:17:24.273Z,34.60
2017-08-26T11:19:50.534Z,34.40
2017-08-26T11:22:17.708Z,34.60
2017-08-26T11:24:44.000Z,34.60
2017-08-26T11:27:10.300Z,34.60
2017-08-26T11:29:37.174Z,35.30
2017-08-26T11:32:03.766Z,35.70
2017-08-26T11:34:30.070Z,36.60
2017-08-26T11:36:56.331Z,37.50
2017-08-26T11:39:23.191Z,38.90
2017-08-26T11:41:49.453Z,40.50
2017-08-26T11:44:15.703Z,41.50
2017-08-26T11:46:41.997Z,41.40
2017-08-26T11:49:08.300Z,42.20
2017-08-26T11:51:34.580Z,42.70
2017-08-26T11:54:00.877Z,43.20
2017-08-26T11:56:27.197Z,43.90
2017-08-26T11:58:53.465Z,44.80
2017-08-26T12:01:19.733Z,45.10
2017-08-26T12:03:46.035Z,45.30
2017-08-26T12:06:12.300Z,46.70
2017-08-26T12:08:38.582Z,47.90
2017-08-26T12:11:04.880Z,47.70
2017-08-26T12:13:31.150Z,48.10
2017-08-26T12:15:57.447Z,48.80
2017-08-26T12:18:23.736Z,49.90
2017-08-26T12:20:50.071Z,51.30
2017-08-26T12:23:16.328Z,51.30
2017-08-26T12:25:42.618Z,52.10
2017-08-26T12:28:08.909Z,53.90
2017-08-26T12:30:35.213Z,54.30
2017-08-26T12:33:01.497Z,55.50
2017-08-26T12:35:27.773Z,55.30
2017-08-26T12:37:54.051Z,55.00
2017-08-26T12:40:20.327Z,54.90
2017-08-26T12:42:46.661Z,54.70
2017-08-26T12:45:12.949Z,54.50
2017-08-26T12:47:39.227Z,55.30
2017-08-26T12:50:05.529Z,55.40
2017-08-26T12:52:31.798Z,55.80
2017-08-26T12:54:58.094Z,54.50
2017-08-26T12:57:24.412Z,55.50
2017-08-26T12:59:50.689Z,56.30
2017-08-26T13:02:16.992Z,55.30
2017-08-26T13:04:43.365Z,53.70
2017-08-26T13:07:09.688Z,53.90
2017-08-26T13:09:35.971Z,53.00
2017-08-26T13:12:02.260Z,52.00
2017-08-26T13:14:28.541Z,53.10
2017-08-26T13:16:54.827Z,53.90
2017-08-26T13:19:21.118Z,53.00
2017-08-26T13:21:47.469Z,52.70
2017-08-26T13:24:13.738Z,53.90
2017-08-26T13:26:40.079Z,55.10
2017-08-26T13:29:06.372Z,54.60
2017-08-26T13:31:32.647Z,53.80
2017-08-26T13:33:58.941Z,53.60
2017-08-26T13:36:25.211Z,53.80
2017-08-26T13:38:51.524Z,54.50
2017-08-26T13:41:17.805Z,55.20
2017-08-26T13:43:44.070Z,55.80
2017-08-26T13:46:10.359Z,55.00
2017-08-26T13:48:36.634Z,54.60
2017-08-26T13:51:02.967Z,53.70
2017-08-26T13:53:29.222Z,53.50
2017-08-26T13:55:55.501Z,53.40
2017-08-26T13:58:21.777Z,52.80
2017-08-26T14:00:48.085Z,52.20
2017-08-26T14:03:14.419Z,51.70
2017-08-26T14:05:40.723Z,51.30
2017-08-26T14:08:07.036Z,51.50
2017-08-26T14:10:33.310Z,50.90
2017-08-26T14:12:59.622Z,51.50
2017-08-26T14:15:25.872Z,52.30
2017-08-26T14:17:52.207Z,53.00
2017-08-26T14:20:18.473Z,52.50
2017-08-26T14:22:44.779Z,52.60
2017-08-26T14:25:11.054Z,50.50
2017-08-26T14:27:37.352Z,49.90
2017-08-26T14:30:03.627Z,50.70
2017-08-26T14:32:29.937Z,50.80
2017-08-26T14:34:56.238Z,51.30
2017-08-26T14:37:22.522Z,51.20
2017-08-26T14:39:48.862Z,51.20
2017-08-26T14:42:15.941Z,50.60
2017-08-26T14:44:42.219Z,51.30
2017-08-26T14:47:08.513Z,49.70
2017-08-26T14:49:35.394Z,49.30
2017-08-26T14:52:02.507Z,48.70
2017-08-26T14:54:28.835Z,48.90
2017-08-26T14:56:55.126Z,47.70
2017-08-26T14:59:21.399Z,47.90
2017-08-26T15:01:47.710Z,49.00
2017-08-26T15:04:13.985Z,49.60
2017-08-26T15:06:40.256Z,50.10
2017-08-26T15:09:06.504Z,49.90
2017-08-26T15:11:32.806Z,49.90
2017-08-26T15:13:59.069Z,50.90
2017-08-26T15:16:25.377Z,51.00
2017-08-26T15:18:52.121Z,50.90
2017-08-26T15:21:18.373Z,50.80
2017-08-26T15:23:44.646Z,50.30
2017-08-26T15:26:10.944Z,50.10
2017-08-26T15:28:37.234Z,49.20
2017-08-26T15:31:03.517Z,49.10
2017-08-26T15:33:29.823Z,49.60
2017-08-26T15:35:56.130Z,49.10
2017-08-26T15:38:22.417Z,47.90
2017-08-26T15:40:48.672Z,47.30
2017-08-26T15:43:14.973Z,47.10
2017-08-26T15:45:41.265Z,47.10
2017-08-26T15:48:07.560Z,46.40
2017-08-26T15:50:33.857Z,45.60
2017-08-26T15:53:00.122Z,45.20
2017-08-26T15:55:26.392Z,43.80
2017-08-26T15:57:52.675Z,42.30
2017-08-26T16:00:19.002Z,41.50
2017-08-26T16:02:45.281Z,40.20
2017-08-26T16:05:11.573Z,39.50
2017-08-26T16:07:37.859Z,38.60
2017-08-26T16:10:04.164Z,38.00
2017-08-26T16:12:30.437Z,37.40
2017-08-26T16:14:56.745Z,36.90
2017-08-26T16:17:23.019Z,36.30
2017-08-26T16:19:49.326Z,35.90
2017-08-26T16:22:15.616Z,35.70
2017-08-26T16:24:41.938Z,35.90
2017-08-26T16:27:08.239Z,36.40
2017-08-26T16:29:34.601Z,36.90
2017-08-26T16:32:00.893Z,36.60
2017-08-26T16:34:27.144Z,35.70
2017-08-26T16:36:53.417Z,35.60
2017-08-26T16:39:19.665Z,35.30
2017-08-26T16:41:45.956Z,35.20
2017-08-26T16:44:12.574Z,34.90
2017-08-26T16:46:38.869Z,34.50
2017-08-26T16:49:05.141Z,34.10
2017-08-26T16:51:31.445Z,34.00
2017-08-26T16:53:58.406Z,33.60
2017-08-26T16:56:24.680Z,33.10
2017-08-26T16:58:50.967Z,32.90
2017-08-26T17:01:17.231Z,32.50
2017-08-26T17:03:43.529Z,32.40
2017-08-26T17:06:09.805Z,32.10
2017-08-26T17:08:36.506Z,32.00
2017-08-26T17:11:02.770Z,32.00
2017-08-26T17:13:29.059Z,32.00
2017-08-26T17:15:55.347Z,31.80
2017-08-26T17:18:22.565Z,31.70
2017-08-26T17:20:48.848Z,31.80
2017-08-26T17:23:15.122Z,31.80
2017-08-26T17:25:41.434Z,31.70
2017-08-26T17:28:07.703Z,31.50
2017-08-26T17:30:34.018Z,31.40
2017-08-26T17:33:00.319Z,31.20
2017-08-26T17:35:26.578Z,31.10
2017-08-26T17:37:52.848Z,31.00
2017-08-26T17:40:19.148Z,30.90
2017-08-26T17:42:45.475Z,30.80
2017-08-26T17:45:11.771Z,30.60
2017-08-26T17:47:38.084Z,30.40
2017-08-26T17:50:04.346Z,30.20
2017-08-26T17:52:30.641Z,30.10
2017-08-26T17:54:56.909Z,29.90
2017-08-26T17:57:23.521Z,29.80
2017-08-26T17:59:49.789Z,29.60
2017-08-26T18:02:16.041Z,29.40
2017-08-26T18:04:42.313Z,29.20
2017-08-26T18:07:08.594Z,28.90
2017-08-26T18:09:34.935Z,28.70
2017-08-26T18:12:01.219Z,28.50
2017-08-26T18:14:27.516Z,28.30
2017-08-26T18:16:53.790Z,28.20
2017-08-26T18:19:20.089Z,28.00
2017-08-26T18:21:46.352Z,27.90
2017-08-26T18:24:12.620Z,27.80
2017-08-26T18:26:38.906Z,27.60
2017-08-26T18:29:05.186Z,27.50
2017-08-26T18:31:31.502Z,27.30
2017-08-26T18:33:57.769Z,27.00
2017-08-26T18:36:24.089Z,27.00
2017-08-26T18:38:50.382Z,26.80
2017-08-26T18:41:16.690Z,26.60
2017-08-26T18:43:42.980Z,26.50
2017-08-26T18:46:09.273Z,26.50
2017-08-26T18:48:36.160Z,26.30
2017-08-26T18:51:02.448Z,26.20
2017-08-26T18:53:28.746Z,26.10
2017-08-26T18:55:55.001Z,25.90
2017-08-26T18:58:21.933Z,25.80
2017-08-26T19:00:48.254Z,25.80
2017-08-26T19:03:14.561Z,25.70
2017-08-26T19:05:40.838Z,25.60
2017-08-26T19:08:07.110Z,25.60
2017-08-26T19:10:33.413Z,25.50
2017-08-26T19:12:59.723Z,25.40
2017-08-26T19:15:26.043Z,25.30
2017-08-26T19:17:52.364Z,25.30
2017-08-26T19:20:18.642Z,25.20
2017-08-26T19:22:44.946Z,25.20
2017-08-26T19:25:11.247Z,25.10
2017-08-26T19:27:37.605Z,25.00
2017-08-26T19:30:03.883Z,24.90
2017-08-26T19:32:30.184Z,24.80
2017-08-26T19:34:56.464Z,24.80
2017-08-26T19:37:22.746Z,24.80
2017-08-26T19:39:49.048Z,24.60
2017-08-26T19:42:15.351Z,24.50
2017-08-26T19:44:41.684Z,24.50
2017-08-26T19:47:07.986Z,24.50
2017-08-26T19:49:36.171Z,24.40
2017-08-26T19:52:02.449Z,24.40
2017-08-26T19:54:29.560Z,24.40
2017-08-26T19:56:55.852Z,24.40
2017-08-26T19:59:22.175Z,24.40
2017-08-26T20:01:48.458Z,24.30
2017-08-26T20:04:14.791Z,24.00
2017-08-26T20:06:41.099Z,23.90
2017-08-26T20:09:07.392Z,24.00
2017-08-26T20:11:33.953Z,24.00
2017-08-26T20:14:00.284Z,23.90
2017-08-26T20:16:26.616Z,23.90
2017-08-26T20:18:52.940Z,23.90
2017-08-26T20:21:19.255Z,23.90
2017-08-26T20:23:45.525Z,24.00
2017-08-26T20:26:11.835Z,24.00
2017-08-26T20:28:38.119Z,24.00
2017-08-26T20:31:04.458Z,24.10
2017-08-26T20:33:30.757Z,24.10
2017-08-26T20:35:57.070Z,24.10
2017-08-26T20:38:23.400Z,24.10
2017-08-26T20:40:49.684Z,24.10
2017-08-26T20:43:15.976Z,24.10
2017-08-26T20:45:42.254Z,24.10
2017-08-26T20:48:08.536Z,24.10
2017-08-26T20:50:34.803Z,24.10
2017-08-26T20:53:01.575Z,24.10
2017-08-26T20:55:27.871Z,24.10
2017-08-26T20:57:54.174Z,24.10
2017-08-26T21:00:20.521Z,24.00
2017-08-26T21:02:46.847Z,24.00
2017-08-26T21:05:13.154Z,24.00
2017-08-26T21:07:39.454Z,24.00
2017-08-26T21:10:05.750Z,24.00
2017-08-26T21:12:32.073Z,24.00
2017-08-26T21:14:58.379Z,23.80
2017-08-26T21:17:24.624Z,23.80
2017-08-26T21:19:50.904Z,23.80
2017-08-26T21:22:17.180Z,23.80
2017-08-26T21:24:43.468Z,23.80
2017-08-26T21:27:09.826Z,23.90
2017-08-26T21:29:36.148Z,23.80
2017-08-26T21:32:03.116Z,23.80
2017-08-26T21:34:29.404Z,23.80
2017-08-26T21:36:55.700Z,23.60
2017-08-26T21:39:21.979Z,23.60
2017-08-26T21:41:48.285Z,23.60
2017-08-26T21:44:14.555Z,23.40
2017-08-26T21:46:41.250Z,23.30
2017-08-26T21:49:07.550Z,23.20
2017-08-26T21:51:34.392Z,23.10
2017-08-26T21:54:00.694Z,22.90
2017-08-26T21:56:27.281Z,23.00
2017-08-26T21:58:53.556Z,22.90
2017-08-26T22:01:19.857Z,22.90
2017-08-26T22:03:46.149Z,22.90
2017-08-26T22:06:12.409Z,22.90
2017-08-26T22:08:39.147Z,22.80
2017-08-26T22:11:05.426Z,22.60
2017-08-26T22:13:31.700Z,22.60
2017-08-26T22:15:58.031Z,22.60
2017-08-26T22:18:24.339Z,22.50
2017-08-26T22:20:50.621Z,22.50
2017-08-26T22:23:16.920Z,22.50
2017-08-26T22:25:43.215Z,22.40
2017-08-26T22:28:09.464Z,22.20
2017-08-26T22:30:35.777Z,22.20
2017-08-26T22:33:02.108Z,22.20
2017-08-26T22:35:28.377Z,22.10
2017-08-26T22:37:54.671Z,22.10
2017-08-26T22:40:20.937Z,22.10
2017-08-26T22:42:47.220Z,22.20
2017-08-26T22:45:13.518Z,22.10
2017-08-26T22:47:39.808Z,22.00
2017-08-26T22:50:06.103Z,22.00
2017-08-26T22:52:32.395Z,22.00
2017-08-26T22:54:58.719Z,21.90
2017-08-26T22:57:24.982Z,21.90
2017-08-26T22:59:51.289Z,21.80
2017-08-26T23:02:17.560Z,21.70
2017-08-26T23:04:44.818Z,21.70
2017-08-26T23:07:11.089Z,21.70
2017-08-26T23:09:37.388Z,21.70
2017-08-26T23:12:03.658Z,21.40
2017-08-26T23:14:30.583Z,21.40
2017-08-26T23:16:56.903Z,21.40
2017-08-26T23:19:23.166Z,21.50
2017-08-26T23:21:49.444Z,21.50
2017-08-26T23:24:15.722Z,21.50
2017-08-26T23:26:42.778Z,21.50
2017-08-26T23:29:09.069Z,21.40
2017-08-26T23:31:35.353Z,21.20
2017-08-26T23:34:01.679Z,21.20
2017-08-26T23:36:27.975Z,21.20
2017-08-26T23:38:54.248Z,21.20
2017-08-26T23:41:20.522Z,21.30
2017-08-26T23:43:46.805Z,21.20
2017-08-26T23:46:13.115Z,21.20
2017-08-26T23:48:39.440Z,21.00
2017-08-26T23:51:05.712Z,21.00
2017-08-26T23:53:32.273Z,21.00
2017-08-26T23:55:58.542Z,21.00
2017-08-26T23:58:24.826Z,21.10
